createdAt,value
2024-01-15T00:01:08.825Z,16.5
2024-01-15T00:02:11.769Z,16.49
2024-01-15T00:03:25.259Z,16.5
2024-01-15T00:04:38.194Z,16.49
2024-01-15T00:05:43.206Z,16.5
2024-01-15T00:06:56.435Z,16.5
2024-01-15T00:08:10.247Z,16.5
2024-01-15T00:09:13.147Z,16.49
2024-01-15T00:10:27.219Z,16.49
2024-01-15T00:11:40.078Z,16.49
2024-01-15T00:12:43.826Z,16.49
2024-01-15T00:13:58.319Z,16.5
2024-01-15T00:15:02.254Z,16.49
2024-01-15T00:16:15.099Z,16.49
2024-01-15T00:17:29.344Z,16.47
2024-01-15T00:18:32.385Z,16.46
2024-01-15T00:19:47.867Z,16.47
2024-01-15T00:21:00.812Z,16.46
2024-01-15T00:22:04.268Z,16.49
2024-01-15T00:23:17.109Z,16.46
2024-01-15T00:24:30.768Z,16.46
2024-01-15T00:25:33.738Z,16.45
2024-01-15T00:26:47.745Z,16.47
2024-01-15T00:28:00.590Z,16.45
2024-01-15T00:29:04.249Z,16.46
2024-01-15T00:30:18.390Z,16.45
2024-01-15T00:31:32.394Z,16.45
2024-01-15T00:32:35.532Z,16.47
2024-01-15T00:33:49.466Z,16.43
2024-01-15T00:35:02.513Z,16.45
2024-01-15T00:36:06.304Z,16.43
2024-01-15T00:37:20.303Z,16.43
2024-01-15T00:38:33.742Z,16.43
2024-01-15T00:39:36.488Z,16.43
2024-01-15T00:40:49.795Z,16.43
2024-01-15T00:42:02.426Z,16.43
2024-01-15T00:43:16.246Z,16.45
2024-01-15T00:44:19.107Z,16.42
2024-01-15T00:45:32.799Z,16.42
2024-01-15T00:46:45.756Z,16.4
2024-01-15T00:47:52.242Z,16.45
2024-01-15T00:49:05.313Z,16.43
2024-01-15T00:50:08.773Z,16.45
2024-01-15T00:51:21.645Z,16.43
2024-01-15T00:52:36.715Z,16.43
2024-01-15T00:53:39.846Z,16.43
2024-01-15T00:55:03.326Z,16.43
2024-01-15T00:56:06.234Z,16.43
2024-01-15T00:57:10.319Z,16.4
2024-01-15T00:58:27.718Z,16.4
2024-01-15T00:59:31.757Z,16.43
2024-01-15T01:00:44.761Z,16.45
2024-01-15T01:01:58.254Z,16.45
2024-01-15T01:03:01.214Z,16.42
2024-01-15T01:04:14.942Z,16.42
2024-01-15T01:05:27.866Z,16.43
2024-01-15T01:06:34.436Z,16.43
2024-01-15T01:07:47.601Z,16.43
2024-01-15T01:09:01.288Z,16.4
2024-01-15T01:10:04.169Z,16.43
2024-01-15T01:11:17.780Z,16.4
2024-01-15T01:12:30.630Z,16.4
2024-01-15T01:13:34.270Z,16.42
2024-01-15T01:14:47.303Z,16.4
2024-01-15T01:16:00.780Z,16.42
2024-01-15T01:17:03.639Z,16.39
2024-01-15T01:18:17.468Z,16.42
2024-01-15T01:19:30.637Z,16.4
2024-01-15T01:20:34.377Z,16.42
2024-01-15T01:21:47.393Z,16.42
2024-01-15T01:23:01.273Z,16.39
2024-01-15T01:24:04.219Z,16.4
2024-01-15T01:25:17.824Z,16.4
2024-01-15T01:26:30.729Z,16.39
2024-01-15T01:27:44.825Z,16.42
2024-01-15T01:28:47.879Z,16.37
2024-01-15T01:30:01.276Z,16.39
2024-01-15T01:31:14.237Z,16.36
2024-01-15T01:32:18.275Z,16.36
2024-01-15T01:33:31.212Z,16.36
2024-01-15T01:34:44.911Z,16.37
2024-01-15T01:35:47.849Z,16.35
2024-01-15T01:37:01.335Z,16.36
2024-01-15T01:38:14.176Z,16.36
2024-01-15T01:39:17.779Z,16.36
2024-01-15T01:40:30.720Z,16.36
2024-01-15T01:41:44.256Z,16.35
2024-01-15T01:42:57.144Z,16.35
2024-01-15T01:44:00.789Z,16.35
2024-01-15T01:45:13.634Z,16.33
2024-01-15T01:46:27.299Z,16.35
2024-01-15T01:47:30.235Z,16.36
2024-01-15T01:48:45.394Z,16.36
2024-01-15T01:49:58.338Z,16.35
2024-01-15T01:51:02.304Z,16.3
2024-01-15T01:52:15.153Z,16.33
2024-01-15T01:53:28.824Z,16.35
2024-01-15T01:54:31.836Z,16.33
2024-01-15T01:55:45.310Z,16.3
2024-01-15T01:56:58.144Z,16.32
2024-01-15T01:58:02.381Z,16.3
2024-01-15T01:59:15.252Z,16.32
2024-01-15T02:00:28.827Z,16.3
2024-01-15T02:01:31.775Z,16.32
2024-01-15T02:02:45.276Z,16.32
2024-01-15T02:03:58.199Z,16.32
2024-01-15T02:05:01.847Z,16.32
2024-01-15T02:06:14.951Z,16.32
2024-01-15T02:07:28.779Z,16.32
2024-01-15T02:08:31.641Z,16.32
2024-01-15T02:09:45.418Z,16.3
2024-01-15T02:10:58.368Z,16.3
2024-01-15T02:12:11.785Z,16.32
2024-01-15T02:13:14.694Z,16.3
2024-01-15T02:14:28.304Z,16.32
2024-01-15T02:15:41.217Z,16.32
2024-01-15T02:16:44.781Z,16.33
2024-01-15T02:17:57.653Z,16.3
2024-01-15T02:19:11.342Z,16.32
2024-01-15T02:20:14.258Z,16.32
2024-01-15T02:21:28.292Z,16.29
2024-01-15T02:22:41.152Z,16.32
2024-01-15T02:23:54.792Z,16.33
2024-01-15T02:24:57.778Z,16.33
2024-01-15T02:26:11.768Z,16.33
2024-01-15T02:27:24.747Z,16.32
2024-01-15T02:28:28.276Z,16.32
2024-01-15T02:29:41.122Z,16.33
2024-01-15T02:30:54.833Z,16.33
2024-01-15T02:31:57.901Z,16.33
2024-01-15T02:33:12.090Z,16.36
2024-01-15T02:34:25.197Z,16.33
2024-01-15T02:35:29.314Z,16.36
2024-01-15T02:36:42.230Z,16.32
2024-01-15T02:37:55.811Z,16.33
2024-01-15T02:38:59.722Z,16.33
2024-01-15T02:40:13.279Z,16.32
2024-01-15T02:41:25.908Z,16.33
2024-01-15T02:42:29.828Z,16.33
2024-01-15T02:43:42.585Z,16.32
2024-01-15T02:44:56.269Z,16.33
2024-01-15T02:45:59.233Z,16.35
2024-01-15T02:47:13.288Z,16.32
2024-01-15T02:48:26.192Z,16.3
2024-01-15T02:49:29.872Z,16.32
2024-01-15T02:50:42.868Z,16.35
2024-01-15T02:51:56.866Z,16.33
2024-01-15T02:52:59.839Z,16.33
2024-01-15T02:54:13.310Z,16.33
2024-01-15T02:55:26.188Z,16.35
2024-01-15T02:56:39.805Z,16.33
2024-01-15T02:57:42.832Z,16.36
2024-01-15T02:58:56.796Z,16.35
2024-01-15T03:00:09.675Z,16.35
2024-01-15T03:01:13.412Z,16.35
2024-01-15T03:02:26.456Z,16.33
2024-01-15T03:03:40.316Z,16.32
2024-01-15T03:04:43.447Z,16.32
2024-01-15T03:05:57.492Z,16.32
2024-01-15T03:07:10.496Z,16.33
2024-01-15T03:08:14.283Z,16.29
2024-01-15T03:09:27.173Z,16.29
2024-01-15T03:10:40.816Z,16.3
2024-01-15T03:11:43.799Z,16.3
2024-01-15T03:12:58.080Z,16.32
2024-01-15T03:14:10.997Z,16.32
2024-01-15T03:15:14.856Z,16.32
2024-01-15T03:16:27.804Z,16.32
2024-01-15T03:17:41.855Z,16.3
2024-01-15T03:18:44.923Z,16.3
2024-01-15T03:19:58.927Z,16.32
2024-01-15T03:21:11.938Z,16.3
2024-01-15T03:22:15.808Z,16.32
2024-01-15T03:23:28.671Z,16.28
2024-01-15T03:24:42.363Z,16.29
2024-01-15T03:25:45.335Z,16.26
2024-01-15T03:26:58.819Z,16.29
2024-01-15T03:28:11.695Z,16.28
2024-01-15T03:29:25.298Z,16.29
2024-01-15T03:30:28.391Z,16.28
2024-01-15T03:31:52.326Z,16.3
2024-01-15T03:32:56.180Z,16.28
2024-01-15T03:33:59.869Z,16.29
2024-01-15T03:35:12.915Z,16.29
2024-01-15T03:36:17.860Z,16.28
2024-01-15T03:37:32.128Z,16.29
2024-01-15T03:38:45.826Z,16.29
2024-01-15T03:39:49.798Z,16.29
2024-01-15T03:41:16.843Z,16.29
2024-01-15T03:42:10.697Z,16.29
2024-01-15T03:43:24.332Z,16.28
2024-01-15T03:44:27.915Z,16.32
2024-01-15T03:45:41.830Z,16.3
2024-01-15T03:47:04.533Z,16.33
2024-01-15T03:48:08.579Z,16.32
2024-01-15T03:49:11.897Z,16.29
2024-01-15T03:50:25.814Z,16.33
2024-01-15T03:51:48.520Z,16.32
2024-01-15T03:52:42.309Z,16.3
2024-01-15T03:53:55.167Z,16.35
2024-01-15T03:55:10.436Z,16.32
2024-01-15T03:56:13.417Z,16.33
2024-01-15T03:57:28.401Z,16.33
2024-01-15T03:58:31.390Z,16.3
2024-01-15T03:59:45.295Z,16.33
2024-01-15T04:00:58.197Z,16.32
2024-01-15T04:02:02.298Z,16.32
2024-01-15T04:03:15.183Z,16.3
2024-01-15T04:04:28.910Z,16.3
2024-01-15T04:05:31.942Z,16.32
2024-01-15T04:06:45.868Z,16.3
2024-01-15T04:07:58.822Z,16.3
2024-01-15T04:09:12.382Z,16.29
2024-01-15T04:10:15.392Z,16.29
2024-01-15T04:11:38.840Z,16.29
2024-01-15T04:12:51.858Z,16.28
2024-01-15T04:13:45.852Z,16.28
2024-01-15T04:14:58.928Z,16.3
2024-01-15T04:16:12.837Z,16.29
2024-01-15T04:17:15.693Z,16.29
2024-01-15T04:18:29.797Z,16.3
2024-01-15T04:19:42.778Z,16.32
2024-01-15T04:20:46.817Z,16.3
2024-01-15T04:21:59.746Z,16.3
2024-01-15T04:23:13.324Z,16.3
2024-01-15T04:24:45.986Z,16.28
2024-01-15T04:25:29.818Z,16.28
2024-01-15T04:26:52.745Z,16.29
2024-01-15T04:27:56.338Z,16.3
2024-01-15T04:28:59.322Z,16.32
2024-01-15T04:30:12.962Z,16.32
2024-01-15T04:31:26.244Z,16.32
2024-01-15T04:32:30.358Z,16.33
2024-01-15T04:33:43.348Z,16.33
2024-01-15T04:34:57.310Z,16.33
2024-01-15T04:36:00.185Z,16.32
2024-01-15T04:37:13.830Z,16.33
2024-01-15T04:38:26.803Z,16.3
2024-01-15T04:39:30.906Z,16.3
2024-01-15T04:40:43.980Z,16.3
2024-01-15T04:41:57.810Z,16.29
2024-01-15T04:43:00.672Z,16.29
2024-01-15T04:44:14.319Z,16.32
2024-01-15T04:45:27.203Z,16.29
2024-01-15T04:46:30.805Z,16.29
2024-01-15T04:47:43.687Z,16.3
2024-01-15T04:48:57.374Z,16.26
2024-01-15T04:50:00.481Z,16.28
2024-01-15T04:51:14.350Z,16.28
2024-01-15T04:52:27.292Z,16.26
2024-01-15T04:53:40.824Z,16.29
2024-01-15T04:54:43.846Z,16.28
2024-01-15T04:55:57.816Z,16.23
2024-01-15T04:57:10.691Z,16.25
2024-01-15T04:58:14.328Z,16.26
2024-01-15T04:59:27.189Z,16.26
2024-01-15T05:00:40.988Z,16.26
2024-01-15T05:01:43.973Z,16.25
2024-01-15T05:02:58.384Z,16.26
2024-01-15T05:04:11.435Z,16.26
2024-01-15T05:05:15.377Z,16.28
2024-01-15T05:06:28.816Z,16.26
2024-01-15T05:07:42.837Z,16.26
2024-01-15T05:08:45.709Z,16.26
2024-01-15T05:09:59.470Z,16.28
2024-01-15T05:11:12.479Z,16.26
2024-01-15T05:12:16.334Z,16.28
2024-01-15T05:13:29.303Z,16.26
2024-01-15T05:14:42.821Z,16.28
2024-01-15T05:15:45.756Z,16.28
2024-01-15T05:16:59.823Z,16.28
2024-01-15T05:18:12.879Z,16.29
2024-01-15T05:19:27.048Z,16.26
2024-01-15T05:20:30.156Z,16.28
2024-01-15T05:21:44.428Z,16.26
2024-01-15T05:22:47.443Z,16.28
2024-01-15T05:24:10.881Z,16.29
2024-01-15T05:25:13.863Z,16.29
2024-01-15T05:26:27.328Z,16.26
2024-01-15T05:27:30.182Z,16.29
2024-01-15T05:28:43.867Z,16.26
2024-01-15T05:29:56.800Z,16.33
2024-01-15T05:31:00.439Z,16.42
2024-01-15T05:32:13.249Z,16.52
2024-01-15T05:33:26.961Z,16.66
2024-01-15T05:34:30.002Z,16.74
2024-01-15T05:35:43.823Z,16.9
2024-01-15T05:36:56.625Z,17.04
2024-01-15T05:38:21.358Z,17.17
2024-01-15T05:39:14.149Z,17.25
2024-01-15T05:40:27.843Z,17.36
2024-01-15T05:41:40.749Z,17.46
2024-01-15T05:42:44.373Z,17.59
2024-01-15T05:44:36.906Z,17.68
2024-01-15T05:45:11.066Z,17.76
2024-01-15T05:46:13.826Z,17.85
2024-01-15T05:47:27.418Z,17.96
2024-01-15T05:48:40.349Z,18.03
2024-01-15T05:49:43.954Z,18.1
2024-01-15T05:50:56.583Z,18.14
2024-01-15T05:52:09.836Z,18.24
2024-01-15T05:53:12.460Z,18.27
2024-01-15T05:54:25.905Z,18.33
2024-01-15T05:55:38.598Z,18.37
2024-01-15T05:56:51.830Z,18.41
2024-01-15T05:57:54.416Z,18.44
2024-01-15T05:59:07.877Z,18.5
2024-01-15T06:00:20.508Z,18.51
2024-01-15T06:01:25.638Z,18.53
2024-01-15T06:02:38.363Z,18.55
2024-01-15T06:03:51.965Z,18.58
2024-01-15T06:04:54.675Z,18.61
2024-01-15T06:07:20.423Z,18.64
2024-01-15T06:08:34.365Z,18.68
2024-01-15T06:09:36.981Z,18.66
2024-01-15T06:10:50.360Z,18.66
2024-01-15T06:12:02.864Z,18.68
2024-01-15T06:13:06.334Z,18.71
2024-01-15T06:14:18.872Z,18.69
2024-01-15T06:15:32.355Z,18.73
2024-01-15T06:16:35.019Z,18.73
2024-01-15T06:17:48.440Z,18.73
2024-01-15T06:19:01.130Z,18.74
2024-01-15T06:20:14.877Z,18.74
2024-01-15T06:21:17.579Z,18.75
2024-01-15T06:22:31.358Z,18.77
2024-01-15T06:23:43.824Z,18.78
2024-01-15T06:24:47.397Z,18.78
2024-01-15T06:25:59.890Z,18.81
2024-01-15T06:27:13.391Z,18.81
2024-01-15T06:28:15.980Z,18.82
2024-01-15T06:29:29.858Z,18.84
2024-01-15T06:30:42.412Z,18.84
2024-01-15T06:31:55.949Z,18.87
2024-01-15T06:32:58.734Z,18.87
2024-01-15T06:34:13.585Z,18.89
2024-01-15T06:35:16.345Z,18.92
2024-01-15T06:36:29.898Z,18.91
2024-01-15T06:37:42.658Z,18.92
2024-01-15T06:38:55.869Z,18.94
2024-01-15T06:39:58.533Z,18.96
2024-01-15T06:41:11.862Z,18.96
2024-01-15T06:42:24.377Z,19.01
2024-01-15T06:43:27.829Z,19.01
2024-01-15T06:44:40.390Z,19.02
2024-01-15T06:45:53.999Z,19.06
2024-01-15T06:46:56.707Z,19.08
2024-01-15T06:48:10.462Z,19.06
2024-01-15T06:49:23.319Z,19.11
2024-01-15T06:50:36.852Z,19.13
2024-01-15T06:51:39.520Z,19.12
2024-01-15T06:52:52.870Z,19.15
2024-01-15T06:54:05.356Z,19.2
2024-01-15T06:55:08.881Z,19.17
2024-01-15T06:56:21.322Z,19.22
2024-01-15T06:57:35.000Z,19.22
2024-01-15T06:58:37.573Z,19.23
2024-01-15T06:59:50.895Z,19.25
2024-01-15T07:01:03.500Z,19.26
2024-01-15T07:02:16.875Z,19.29
2024-01-15T07:03:19.545Z,19.26
2024-01-15T07:04:32.873Z,19.29
2024-01-15T07:05:45.439Z,19.32
2024-01-15T07:06:48.992Z,19.29
2024-01-15T07:08:01.522Z,19.3
2024-01-15T07:09:16.371Z,19.33
2024-01-15T07:10:18.973Z,19.35
2024-01-15T07:11:32.382Z,19.35
2024-01-15T07:12:45.228Z,19.35
2024-01-15T07:13:58.869Z,19.38
2024-01-15T07:15:01.356Z,19.39
2024-01-15T07:16:16.505Z,19.39
2024-01-15T07:17:22.656Z,19.4
2024-01-15T07:18:35.976Z,19.42
2024-01-15T07:19:48.642Z,19.42
2024-01-15T07:20:52.391Z,19.42
2024-01-15T07:22:04.857Z,19.45
2024-01-15T07:23:18.385Z,19.43
2024-01-15T07:24:20.906Z,19.42
2024-01-15T07:25:43.864Z,19.46
2024-01-15T07:26:46.379Z,19.46
2024-01-15T07:27:59.437Z,19.46
2024-01-15T07:29:02.034Z,19.43
2024-01-15T07:30:15.606Z,19.42
2024-01-15T07:31:28.301Z,19.38
2024-01-15T07:32:31.869Z,19.35
2024-01-15T07:33:44.431Z,19.32
2024-01-15T07:34:57.983Z,19.29
2024-01-15T07:36:03.586Z,19.26
2024-01-15T07:37:17.372Z,19.2
2024-01-15T07:38:19.909Z,19.17
2024-01-15T07:39:33.398Z,19.15
2024-01-15T07:40:45.930Z,19.11
2024-01-15T07:41:59.383Z,19.09
2024-01-15T07:43:01.962Z,19.05
2024-01-15T07:44:15.418Z,19.02
2024-01-15T07:45:27.940Z,19.01
2024-01-15T07:46:31.584Z,18.98
2024-01-15T07:47:44.233Z,19.01
2024-01-15T07:48:58.436Z,19.01
2024-01-15T07:50:05.435Z,19.02
2024-01-15T07:51:09.892Z,19.02
2024-01-15T07:52:22.402Z,19.05
2024-01-15T07:53:35.905Z,19.09
2024-01-15T07:54:48.437Z,19.08
2024-01-15T07:55:51.892Z,19.12
2024-01-15T07:57:04.408Z,19.15
2024-01-15T07:58:17.933Z,19.17
2024-01-15T07:59:20.591Z,19.2
2024-01-15T08:00:33.993Z,19.25
2024-01-15T08:01:46.538Z,19.26
2024-01-15T08:02:49.861Z,19.3
2024-01-15T08:04:02.451Z,19.33
2024-01-15T08:05:15.874Z,19.36
2024-01-15T08:06:28.459Z,19.38
2024-01-15T08:07:31.896Z,19.42
2024-01-15T08:08:44.338Z,19.43
2024-01-15T08:09:57.414Z,19.47
2024-01-15T08:11:00.090Z,19.46
2024-01-15T08:12:13.438Z,19.52
2024-01-15T08:13:25.995Z,19.52
2024-01-15T08:14:29.867Z,19.53
2024-01-15T08:15:42.356Z,19.53
2024-01-15T08:16:55.885Z,19.55
2024-01-15T08:17:58.646Z,19.56
2024-01-15T08:19:12.680Z,19.56
2024-01-15T08:20:25.397Z,19.57
2024-01-15T08:21:28.926Z,19.59
2024-01-15T08:22:41.377Z,19.59
2024-01-15T08:23:55.407Z,19.59
2024-01-15T08:25:07.839Z,19.62
2024-01-15T08:26:11.413Z,19.59
2024-01-15T08:27:23.839Z,19.6
2024-01-15T08:28:39.552Z,19.6
2024-01-15T08:29:42.385Z,19.6
2024-01-15T08:30:55.501Z,19.63
2024-01-15T08:32:08.082Z,19.63
2024-01-15T08:33:18.761Z,19.63
2024-01-15T08:34:24.786Z,19.64
2024-01-15T08:35:38.366Z,19.64
2024-01-15T08:36:40.943Z,19.66
2024-01-15T08:37:54.383Z,19.64
2024-01-15T08:39:06.790Z,19.64
2024-01-15T08:40:10.381Z,19.64
2024-01-15T08:41:22.802Z,19.66
2024-01-15T08:42:35.920Z,19.64
2024-01-15T08:43:48.359Z,19.66
2024-01-15T08:44:51.893Z,19.66
2024-01-15T08:46:04.299Z,19.67
2024-01-15T08:47:17.397Z,19.7
2024-01-15T08:48:19.933Z,19.67
2024-01-15T08:49:33.500Z,19.68
2024-01-15T08:50:46.044Z,19.67
2024-01-15T08:51:59.405Z,19.67
2024-01-15T08:53:01.926Z,19.68
2024-01-15T08:54:15.423Z,19.66
2024-01-15T08:55:27.991Z,19.66
2024-01-15T08:56:31.392Z,19.68
2024-01-15T08:57:43.912Z,19.67
2024-01-15T08:58:57.404Z,19.67
2024-01-15T09:00:09.969Z,19.67
2024-01-15T09:01:13.518Z,19.67
2024-01-15T09:02:26.086Z,19.67
2024-01-15T09:03:39.998Z,19.66
2024-01-15T09:04:42.701Z,19.67
2024-01-15T09:05:55.954Z,19.68
2024-01-15T09:07:08.426Z,19.67
2024-01-15T09:08:21.902Z,19.66
2024-01-15T09:09:24.425Z,19.66
2024-01-15T09:10:37.894Z,19.68
2024-01-15T09:11:50.305Z,19.68
2024-01-15T09:12:53.512Z,19.66
2024-01-15T09:14:17.217Z,19.66
2024-01-15T09:15:22.393Z,19.68
2024-01-15T09:16:24.920Z,19.66
2024-01-15T09:17:38.486Z,19.68
2024-01-15T09:18:51.129Z,19.67
2024-01-15T09:19:55.970Z,19.68
2024-01-15T09:21:08.455Z,19.68
2024-01-15T09:22:21.885Z,19.7
2024-01-15T09:23:24.499Z,19.7
2024-01-15T09:24:38.487Z,19.7
2024-01-15T09:25:51.090Z,19.71
2024-01-15T09:28:23.166Z,19.71
2024-01-15T09:29:17.505Z,19.71
2024-01-15T09:30:32.081Z,19.71
2024-01-15T09:31:34.916Z,19.7
2024-01-15T09:32:48.492Z,19.73
2024-01-15T09:34:01.092Z,19.71
2024-01-15T09:35:14.481Z,19.74
2024-01-15T09:36:17.033Z,19.74
2024-01-15T09:37:41.627Z,19.73
2024-01-15T09:38:39.858Z,19.73
2024-01-15T09:39:53.512Z,19.74
2024-01-15T09:40:56.173Z,19.74
2024-01-15T09:42:09.504Z,19.73
2024-01-15T09:43:23.427Z,19.74
2024-01-15T09:44:26.968Z,19.74
2024-01-15T09:45:39.366Z,19.74
2024-01-15T09:46:52.976Z,19.77
2024-01-15T09:47:55.579Z,19.76
2024-01-15T09:49:09.101Z,19.74
2024-01-15T09:50:21.783Z,19.74
2024-01-15T09:51:25.460Z,19.74
2024-01-15T09:52:39.387Z,19.73
2024-01-15T09:53:52.982Z,19.76
2024-01-15T09:54:55.593Z,19.77
2024-01-15T09:56:08.967Z,19.77
2024-01-15T09:57:21.364Z,19.77
2024-01-15T09:58:34.492Z,19.78
2024-01-15T09:59:36.979Z,19.78
2024-01-15T10:00:50.244Z,19.81
2024-01-15T10:02:02.772Z,19.81
2024-01-15T10:03:05.949Z,19.81
2024-01-15T10:04:18.490Z,19.83
2024-01-15T10:05:32.003Z,19.83
2024-01-15T10:06:44.535Z,19.81
2024-01-15T10:07:49.408Z,19.84
2024-01-15T10:09:02.056Z,19.84
2024-01-15T10:10:16.892Z,19.87
2024-01-15T10:11:19.749Z,19.86
2024-01-15T10:12:33.043Z,19.87
2024-01-15T10:13:35.715Z,19.87
2024-01-15T10:14:48.969Z,19.87
2024-01-15T10:16:01.533Z,19.9
2024-01-15T10:17:14.965Z,19.93
2024-01-15T10:18:17.639Z,19.94
2024-01-15T10:19:31.081Z,19.94
2024-01-15T10:20:43.628Z,19.94
2024-01-15T10:21:47.019Z,19.97
2024-01-15T10:22:59.525Z,19.98
2024-01-15T10:24:13.022Z,20.0
2024-01-15T10:25:15.549Z,20.01
2024-01-15T10:26:28.982Z,20.04
2024-01-15T10:29:00.481Z,20.06
2024-01-15T10:30:07.592Z,20.07
2024-01-15T10:31:11.110Z,20.08
2024-01-15T10:32:23.727Z,20.08
2024-01-15T10:33:27.088Z,20.13
2024-01-15T10:34:39.591Z,20.11
2024-01-15T10:35:52.952Z,20.14
2024-01-15T10:36:55.533Z,20.18
2024-01-15T10:38:08.970Z,20.15
2024-01-15T10:39:21.378Z,20.18
2024-01-15T10:40:34.924Z,20.18
2024-01-15T10:41:37.407Z,20.21
2024-01-15T10:42:50.974Z,20.18
2024-01-15T10:44:03.536Z,20.21
2024-01-15T10:45:06.925Z,20.21
2024-01-15T10:46:19.399Z,20.19
2024-01-15T10:47:32.585Z,20.22
2024-01-15T10:48:35.271Z,20.21
2024-01-15T10:49:48.553Z,20.21
2024-01-15T10:51:01.009Z,20.24
2024-01-15T10:52:14.435Z,20.22
2024-01-15T10:53:16.876Z,20.24
2024-01-15T10:54:29.956Z,20.22
2024-01-15T10:55:42.522Z,20.22
2024-01-15T10:56:45.940Z,20.27
2024-01-15T10:57:58.437Z,20.25
2024-01-15T10:59:11.434Z,20.27
2024-01-15T11:00:23.793Z,20.28
2024-01-15T11:01:29.957Z,20.27
2024-01-15T11:02:43.154Z,20.29
2024-01-15T11:03:46.599Z,20.31
2024-01-15T11:04:59.122Z,20.31
2024-01-15T11:06:15.453Z,20.29
2024-01-15T11:07:18.009Z,20.32
2024-01-15T11:08:32.887Z,20.34
2024-01-15T11:09:35.438Z,20.32
2024-01-15T11:10:48.945Z,20.34
2024-01-15T11:12:01.292Z,20.32
2024-01-15T11:13:14.482Z,20.34
2024-01-15T11:14:16.926Z,20.32
2024-01-15T11:15:29.999Z,20.34
2024-01-15T11:16:42.456Z,20.29
2024-01-15T11:17:45.968Z,20.31
2024-01-15T11:18:58.513Z,20.31
2024-01-15T11:20:11.960Z,20.28
2024-01-15T11:21:14.451Z,20.27
2024-01-15T11:22:27.984Z,20.25
2024-01-15T11:23:40.344Z,20.25
2024-01-15T11:24:53.525Z,20.24
2024-01-15T11:25:56.094Z,20.24
2024-01-15T11:27:09.486Z,20.24
2024-01-15T11:28:21.951Z,20.24
2024-01-15T11:29:28.677Z,20.24
2024-01-15T11:30:42.167Z,20.19
2024-01-15T11:31:45.769Z,20.18
2024-01-15T11:32:58.582Z,20.17
2024-01-15T11:34:12.112Z,20.19
2024-01-15T11:35:14.784Z,20.19
2024-01-15T11:36:28.005Z,20.21
2024-01-15T11:37:40.515Z,20.21
2024-01-15T11:38:53.969Z,20.21
2024-01-15T11:39:56.551Z,20.21
2024-01-15T11:41:10.464Z,20.18
2024-01-15T11:42:22.878Z,20.18
2024-01-15T11:43:26.437Z,20.17
2024-01-15T11:44:38.824Z,20.18
2024-01-15T11:45:51.996Z,20.15
2024-01-15T11:46:55.948Z,20.11
2024-01-15T11:48:09.041Z,20.14
2024-01-15T11:49:21.755Z,20.13
2024-01-15T11:50:25.474Z,20.13
2024-01-15T11:51:37.939Z,20.13
2024-01-15T11:52:51.483Z,20.13
2024-01-15T11:54:03.889Z,20.11
2024-01-15T11:55:07.019Z,20.11
2024-01-15T11:56:19.396Z,20.08
2024-01-15T11:57:32.509Z,20.1
2024-01-15T11:58:35.143Z,20.08
2024-01-15T11:59:48.492Z,20.13
2024-01-15T12:01:00.985Z,20.11
2024-01-15T12:02:14.500Z,20.14
2024-01-15T12:03:17.006Z,20.13
2024-01-15T12:04:30.554Z,20.17
2024-01-15T12:05:43.292Z,20.21
2024-01-15T12:06:46.551Z,20.22
2024-01-15T12:07:58.999Z,20.25
2024-01-15T12:09:12.016Z,20.28
2024-01-15T12:10:24.492Z,20.29
2024-01-15T12:11:28.068Z,20.32
2024-01-15T12:12:40.484Z,20.32
2024-01-15T12:13:53.978Z,20.35
2024-01-15T12:14:56.551Z,20.35
2024-01-15T12:16:09.678Z,20.37
2024-01-15T12:17:22.171Z,20.37
2024-01-15T12:18:35.592Z,20.41
2024-01-15T12:19:38.249Z,20.42
2024-01-15T12:20:51.472Z,20.48
2024-01-15T12:22:23.465Z,20.48
2024-01-15T12:23:08.803Z,20.55
2024-01-15T12:24:21.894Z,20.57
2024-01-15T12:25:36.919Z,20.64
2024-01-15T12:26:39.430Z,20.66
2024-01-15T12:27:52.489Z,20.72
2024-01-15T12:28:56.863Z,20.73
2024-01-15T12:30:11.125Z,20.79
2024-01-15T12:31:23.558Z,20.8
2024-01-15T12:32:27.017Z,20.83
2024-01-15T12:33:39.494Z,20.89
2024-01-15T12:34:53.030Z,20.92
2024-01-15T12:35:55.674Z,20.93
2024-01-15T12:37:08.987Z,20.97
2024-01-15T12:38:21.284Z,20.99
2024-01-15T12:39:34.528Z,21.01
2024-01-15T12:40:37.996Z,21.01
2024-01-15T12:41:51.597Z,21.04
2024-01-15T12:43:03.940Z,21.09
2024-01-15T12:44:07.007Z,21.1
2024-01-15T12:45:19.382Z,21.13
2024-01-15T12:46:33.001Z,21.14
2024-01-15T12:47:35.504Z,21.16
2024-01-15T12:48:48.561Z,21.17
2024-01-15T12:50:09.772Z,21.17
2024-01-15T12:51:08.994Z,21.19
2024-01-15T12:52:21.281Z,21.2
2024-01-15T12:53:34.515Z,21.19
2024-01-15T12:54:37.082Z,21.19
2024-01-15T12:55:50.028Z,21.16
2024-01-15T12:57:02.302Z,21.14
2024-01-15T12:58:05.517Z,21.14
2024-01-15T12:59:17.821Z,21.16
2024-01-15T13:00:31.129Z,21.13
2024-01-15T13:01:43.604Z,21.13
2024-01-15T13:02:46.997Z,21.11
2024-01-15T13:03:59.370Z,21.11
2024-01-15T13:05:13.237Z,21.09
2024-01-15T13:06:16.969Z,21.13
2024-01-15T13:07:30.481Z,21.1
2024-01-15T13:08:42.860Z,21.09
2024-01-15T13:09:46.034Z,21.09
2024-01-15T13:10:58.500Z,21.09
2024-01-15T13:12:11.527Z,21.09
2024-01-15T13:13:14.067Z,21.09
2024-01-15T13:14:27.019Z,21.09
2024-01-15T13:15:39.406Z,21.1
2024-01-15T13:16:52.524Z,21.1
2024-01-15T13:17:54.931Z,21.07
2024-01-15T13:19:08.169Z,21.06
2024-01-15T13:20:20.680Z,21.09
2024-01-15T13:21:24.050Z,21.07
2024-01-15T13:22:36.413Z,21.06
2024-01-15T13:23:49.528Z,21.09
2024-01-15T13:25:21.930Z,21.07
2024-01-15T13:26:05.492Z,21.07
2024-01-15T13:27:17.968Z,21.06
2024-01-15T13:28:31.029Z,21.09
2024-01-15T13:29:33.471Z,21.11
2024-01-15T13:30:46.570Z,21.1
2024-01-15T13:31:58.982Z,21.09
2024-01-15T13:33:12.645Z,21.11
2024-01-15T13:34:15.342Z,21.13
2024-01-15T13:35:28.529Z,21.11
2024-01-15T13:36:40.814Z,21.1
2024-01-15T13:37:45.448Z,21.14
2024-01-15T13:38:57.895Z,21.13
2024-01-15T13:40:11.052Z,21.16
2024-01-15T13:41:14.878Z,21.16
2024-01-15T13:42:30.978Z,21.2
2024-01-15T13:43:33.464Z,21.2
2024-01-15T13:44:46.522Z,21.2
2024-01-15T13:45:58.862Z,21.2
2024-01-15T13:47:02.000Z,21.21
2024-01-15T13:48:14.352Z,21.21
2024-01-15T13:49:27.589Z,21.23
2024-01-15T13:50:39.935Z,21.26
2024-01-15T13:51:43.063Z,21.27
2024-01-15T13:52:55.413Z,21.26
2024-01-15T13:54:08.542Z,21.27
2024-01-15T13:55:11.321Z,21.27
2024-01-15T13:56:24.644Z,21.29
2024-01-15T13:57:38.628Z,21.3
2024-01-15T13:58:41.998Z,21.29
2024-01-15T13:59:54.300Z,21.27
2024-01-15T14:01:07.616Z,21.26
2024-01-15T14:02:10.148Z,21.21
2024-01-15T14:03:23.115Z,21.21
2024-01-15T14:04:37.213Z,21.19
2024-01-15T14:05:50.254Z,21.2
2024-01-15T14:06:52.946Z,21.19
2024-01-15T14:08:11.142Z,21.19
2024-01-15T14:09:13.674Z,21.19
2024-01-15T14:10:29.955Z,21.2
2024-01-15T14:11:32.421Z,21.17
2024-01-15T14:12:45.559Z,21.17
2024-01-15T14:13:57.930Z,21.16
2024-01-15T14:15:01.020Z,21.16
2024-01-15T14:16:13.308Z,21.17
2024-01-15T14:17:26.573Z,21.16
2024-01-15T14:18:31.832Z,21.16
2024-01-15T14:19:47.139Z,21.16
2024-01-15T14:20:49.751Z,21.13
2024-01-15T14:22:03.018Z,21.14
2024-01-15T14:23:15.360Z,21.14
2024-01-15T14:24:28.954Z,21.14
2024-01-15T14:25:31.764Z,21.14
2024-01-15T14:26:45.095Z,21.13
2024-01-15T14:27:57.933Z,21.13
2024-01-15T14:29:01.813Z,21.16
2024-01-15T14:30:14.750Z,21.13
2024-01-15T14:31:28.823Z,21.13
2024-01-15T14:32:31.689Z,21.16
2024-01-15T14:33:45.099Z,21.13
2024-01-15T14:34:47.740Z,21.14
2024-01-15T14:36:01.068Z,21.13
2024-01-15T14:37:13.447Z,21.13
2024-01-15T14:38:26.544Z,21.1
2024-01-15T14:39:29.089Z,21.09
2024-01-15T14:40:42.548Z,21.09
2024-01-15T14:41:54.910Z,21.1
2024-01-15T14:42:58.082Z,21.11
2024-01-15T14:44:10.420Z,21.11
2024-01-15T14:45:23.580Z,21.1
2024-01-15T14:46:25.981Z,21.1
2024-01-15T14:47:39.040Z,21.11
2024-01-15T14:48:51.475Z,21.11
2024-01-15T14:50:04.593Z,21.1
2024-01-15T14:51:07.030Z,21.11
2024-01-15T14:52:20.040Z,21.11
2024-01-15T14:53:32.357Z,21.11
2024-01-15T14:54:45.568Z,21.07
2024-01-15T14:55:48.103Z,21.1
2024-01-15T14:57:01.053Z,21.07
2024-01-15T14:58:13.377Z,21.06
2024-01-15T14:59:16.543Z,21.03
2024-01-15T15:00:28.907Z,21.06
2024-01-15T15:01:42.141Z,21.03
2024-01-15T15:02:54.653Z,21.01
2024-01-15T15:03:58.176Z,21.01
2024-01-15T15:05:10.627Z,21.0
2024-01-15T15:06:23.642Z,20.97
2024-01-15T15:07:36.503Z,20.99
2024-01-15T15:08:40.047Z,20.99
2024-01-15T15:09:52.559Z,20.99